createdAt,value
2022-10-29T00:04:58.028Z,101765.25
2022-10-29T00:10:03.333Z,101770.34
2022-10-29T00:15:07.575Z,101771.75
2022-10-29T00:20:11.706Z,101775.03
2022-10-29T00:25:17.042Z,101776.91
2022-10-29T00:30:19.863Z,101779.31
2022-10-29T00:35:24.110Z,101788.09
2022-10-29T00:40:29.264Z,101789.47
2022-10-29T00:45:32.919Z,101793.59
2022-10-29T00:50:36.986Z,101785.59
2022-10-29T00:55:42.232Z,101786.50
2022-10-29T01:00:46.089Z,101790.31
2022-10-29T01:05:50.444Z,101775.03
2022-10-29T01:11:03.875Z,101781.56
2022-10-29T01:16:18.725Z,101774.69
2022-10-29T01:21:54.401Z,101778.06
2022-10-29T01:27:40.562Z,101775.78
2022-10-29T01:32:54.438Z,101767.63
2022-10-29T01:38:12.144Z,101763.53
2022-10-29T01:48:34.548Z,101776.66
2022-10-29T01:53:39.806Z,101780.88
2022-10-29T01:58:48.332Z,101782.13
2022-10-29T02:04:03.153Z,101802.56
2022-10-29T02:09:16.180Z,101817.00
2022-10-29T02:14:26.594Z,101813.19
2022-10-29T02:19:33.609Z,101829.31
2022-10-29T02:24:37.152Z,101834.56
2022-10-29T02:29:40.709Z,101834.03
2022-10-29T02:34:45.855Z,101844.91
2022-10-29T02:39:49.388Z,101853.16
2022-10-29T02:44:53.613Z,101859.41
2022-10-29T02:49:59.505Z,101859.28
2022-10-29T02:55:02.292Z,101883.19
2022-10-29T03:00:06.896Z,101877.19
2022-10-29T03:05:12.213Z,101883.50
2022-10-29T03:10:15.837Z,101886.31
2022-10-29T03:15:19.377Z,101893.72
2022-10-29T03:20:24.562Z,101889.44
2022-10-29T03:25:28.121Z,101892.34
2022-10-29T03:30:32.424Z,101884.78
2022-10-29T03:35:37.673Z,101881.38
2022-10-29T03:40:42.072Z,101889.31
2022-10-29T03:45:45.631Z,101892.16
2022-10-29T03:50:57.741Z,101886.41
2022-10-29T03:56:01.316Z,101886.28
2022-10-29T04:01:06.304Z,101881.44
2022-10-29T04:06:16.052Z,101878.56
2022-10-29T04:11:19.671Z,101885.94
2022-10-29T04:16:23.265Z,101883.41
2022-10-29T04:23:25.390Z,101886.19
2022-10-29T04:32:15.577Z,101904.63
2022-10-29T04:37:20.784Z,101890.97
2022-10-29T04:42:24.351Z,101898.84
2022-10-29T04:47:27.879Z,101898.13
2022-10-29T04:52:33.070Z,101889.41
2022-10-29T04:57:36.623Z,101903.38
2022-10-29T05:02:40.146Z,101913.81
2022-10-29T05:07:45.405Z,101916.56
2022-10-29T05:12:48.931Z,101902.66
2022-10-29T05:17:52.631Z,101907.25
2022-10-29T05:23:02.604Z,101922.06
2022-10-29T05:28:08.297Z,101924.75
2022-10-29T05:33:13.328Z,101925.66
2022-10-29T05:38:18.762Z,101928.34
2022-10-29T05:43:22.291Z,101942.31
2022-10-29T05:48:25.834Z,101935.38
2022-10-29T05:53:31.922Z,101934.53
2022-10-29T05:58:35.558Z,101937.09
2022-10-29T06:03:39.446Z,101945.97
2022-10-29T06:08:45.616Z,101946.00
2022-10-29T06:13:49.894Z,101942.47
2022-10-29T06:18:53.423Z,101958.16
2022-10-29T06:23:58.580Z,101962.59
2022-10-29T06:29:02.243Z,101955.69
2022-10-29T06:34:05.895Z,101952.16
2022-10-29T06:39:11.068Z,101960.91
2022-10-29T06:44:14.603Z,101955.72
2022-10-29T06:49:18.135Z,101964.47
2022-10-29T06:54:24.319Z,101975.81
2022-10-29T06:59:27.130Z,101961.88
2022-10-29T07:04:30.703Z,101964.53
2022-10-29T07:09:35.869Z,101968.88
2022-10-29T07:14:39.430Z,101983.69
2022-10-29T07:19:42.952Z,101980.22
2022-10-29T07:24:48.131Z,101988.94
2022-10-29T07:29:51.675Z,101986.34
2022-10-29T07:34:55.247Z,101991.59
2022-10-29T07:40:00.533Z,101998.53
2022-10-29T07:45:04.279Z,102001.16
2022-10-29T07:50:08.765Z,101997.69
2022-10-29T07:55:16.550Z,101971.53
2022-10-29T08:00:20.218Z,101972.41
2022-10-29T08:05:24.292Z,101972.44
2022-10-29T08:10:30.376Z,101970.69
2022-10-29T08:15:34.741Z,101971.53
2022-10-29T08:20:38.426Z,101986.31
2022-10-29T08:25:43.770Z,101983.72
2022-10-29T08:30:50.792Z,101989.81
2022-10-29T08:35:54.354Z,101991.53
2022-10-29T08:41:30.798Z,101995.03
2022-10-29T08:46:44.701Z,102008.03
2022-10-29T08:51:54.669Z,102010.63
2022-10-29T08:57:05.260Z,101998.44
2022-10-29T09:02:16.928Z,102001.06
2022-10-29T09:07:35.398Z,102001.94
2022-10-29T09:13:11.149Z,102005.41
2022-10-29T09:18:30.632Z,102000.19
2022-10-29T09:23:53.137Z,101999.31
2022-10-29T09:29:14.636Z,102005.34
2022-10-29T09:34:23.641Z,102010.53
2022-10-29T09:39:34.329Z,102010.53
2022-10-29T09:44:46.786Z,102012.28
2022-10-29T09:50:05.380Z,102007.91
2022-10-29T09:55:21.500Z,102013.97
2022-10-29T10:00:29.839Z,102014.81
2022-10-29T10:05:35.072Z,102013.91
2022-10-29T10:10:50.593Z,102012.16
2022-10-29T10:15:57.602Z,102018.25
2022-10-29T10:21:04.463Z,102013.88
2022-10-29T10:26:29.501Z,102010.34
2022-10-29T10:31:34.661Z,102001.66
2022-10-29T10:36:41.594Z,101999.94
2022-10-29T10:41:45.208Z,101994.72
2022-10-29T10:46:52.643Z,101993.81
2022-10-29T10:51:58.648Z,101992.97
2022-10-29T10:57:03.611Z,101987.72
2022-10-29T11:02:21.387Z,101988.56
2022-10-29T11:07:28.148Z,101998.94
2022-10-29T11:12:37.608Z,101988.53
2022-10-29T11:17:54.063Z,101988.50
2022-10-29T11:23:22.970Z,101990.28
2022-10-29T11:28:34.146Z,101986.75
2022-10-29T11:33:47.763Z,101983.31
2022-10-29T11:38:57.239Z,101991.94
2022-10-29T11:44:00.860Z,101991.88
2022-10-29T11:49:21.974Z,101997.03
2022-10-29T11:54:46.181Z,102002.25
2022-10-29T12:00:05.094Z,102008.25
2022-10-29T12:05:20.181Z,102016.00
2022-10-29T12:10:33.128Z,102010.75
2022-10-29T12:15:42.177Z,102016.78
2022-10-29T12:20:55.456Z,102023.69
2022-10-29T12:26:08.013Z,102020.19
2022-10-29T12:31:22.890Z,102017.59
2022-10-29T12:36:39.329Z,102025.44
2022-10-29T12:41:48.078Z,102033.22
2022-10-29T12:47:00.163Z,102038.41
2022-10-29T12:52:12.520Z,102033.97
2022-10-29T12:57:30.367Z,102027.91
2022-10-29T13:02:46.375Z,102033.94
2022-10-29T13:08:18.860Z,102033.88
2022-10-29T13:13:36.740Z,102033.81
2022-10-29T13:18:50.092Z,102029.53
2022-10-29T13:24:06.057Z,102028.56
2022-10-29T13:29:09.572Z,102037.13
2022-10-29T13:34:27.609Z,102044.94
2022-10-29T13:39:32.804Z,102044.03
2022-10-29T13:44:39.517Z,102030.91
2022-10-29T13:49:45.874Z,102033.53
2022-10-29T13:54:54.969Z,102025.84
2022-10-29T14:00:04.308Z,102018.28
2022-10-29T14:05:17.974Z,102024.41
2022-10-29T14:10:27.666Z,102021.78
2022-10-29T14:15:31.285Z,102024.63
2022-10-29T14:20:34.922Z,102020.06
2022-10-29T14:25:40.086Z,102034.13
2022-10-29T14:30:44.057Z,102038.53
2022-10-29T14:35:48.724Z,102029.84
2022-10-29T14:40:53.908Z,102039.41
2022-10-29T14:46:09.512Z,102039.41
2022-10-29T14:51:20.236Z,102045.47
2022-10-29T14:56:33.348Z,102050.66
2022-10-29T15:01:47.221Z,102048.91
2022-10-29T15:06:50.946Z,102062.81
2022-10-29T15:12:04.248Z,102067.88
2022-10-29T15:17:11.702Z,102066.00
2022-10-29T15:22:21.589Z,102055.63
2022-10-29T15:27:27.220Z,102061.84
2022-10-29T15:32:31.638Z,102070.44
2022-10-29T15:37:43.802Z,102069.47
2022-10-29T15:42:49.326Z,102066.69
2022-10-29T15:47:56.455Z,102082.28
2022-10-29T15:53:01.799Z,102091.53
2022-10-29T15:58:11.837Z,102089.78
2022-10-29T16:03:16.788Z,102100.81
2022-10-29T16:08:26.157Z,102100.47
2022-10-29T16:13:33.114Z,102105.19
2022-10-29T16:18:36.752Z,102109.19
2022-10-29T16:23:40.475Z,102120.09
2022-10-29T16:28:54.858Z,102125.69
2022-10-29T16:34:00.178Z,102115.47
2022-10-29T16:39:04.396Z,102119.88
2022-10-29T16:44:09.769Z,102121.69
2022-10-29T16:49:13.299Z,102115.94
2022-10-29T16:54:16.973Z,102120.81
2022-10-29T16:59:22.178Z,102113.06
2022-10-29T17:04:25.808Z,102115.84
2022-10-29T17:09:29.726Z,102108.44
2022-10-29T17:14:35.017Z,102116.13
2022-10-29T17:19:38.547Z,102119.06
2022-10-29T17:24:42.097Z,102110.13
2022-10-29T17:29:47.316Z,102113.00
2022-10-29T17:34:51.110Z,102103.91
2022-10-29T17:39:54.707Z,102103.28
2022-10-29T17:44:59.889Z,102111.53
2022-10-29T17:50:03.450Z,102120.03
2022-10-29T17:55:07.913Z,102117.16
2022-10-29T18:00:15.596Z,102120.13
2022-10-29T18:05:19.728Z,102112.88
2022-10-29T18:10:23.284Z,102118.47
2022-10-29T18:15:28.560Z,102128.19
2022-10-29T18:20:32.097Z,102122.91
2022-10-29T18:25:35.634Z,102116.28
2022-10-29T18:30:40.799Z,102104.50
2022-10-29T18:35:44.331Z,102112.50
2022-10-29T18:40:55.019Z,102107.94
2022-10-29T18:46:01.793Z,102095.13
2022-10-29T18:51:07.356Z,102087.53
2022-10-29T18:56:10.944Z,102080.69
2022-10-29T19:01:17.455Z,102076.31
2022-10-29T19:06:21.441Z,102083.72
2022-10-29T19:11:27.100Z,102082.16
2022-10-29T19:16:33.385Z,102072.03
2022-10-29T19:21:37.651Z,102075.00
2022-10-29T19:26:41.568Z,102062.81
2022-10-29T19:31:47.500Z,102048.00
2022-10-29T19:36:51.087Z,102044.59
2022-10-29T19:41:54.845Z,102033.13
2022-10-29T19:47:00.039Z,102023.50
2022-10-29T19:52:03.604Z,102007.91
2022-10-29T19:57:07.245Z,102000.88
2022-10-29T20:02:12.603Z,101997.34
2022-10-29T20:07:15.600Z,101990.97
2022-10-29T20:12:19.190Z,101987.38
2022-10-29T20:17:24.373Z,101975.03
2022-10-29T20:22:30.398Z,101973.72
2022-10-29T20:27:33.939Z,101960.34
2022-10-29T20:32:40.126Z,101960.09
2022-10-29T20:37:43.689Z,101956.25
2022-10-29T20:42:50.499Z,101939.75
2022-10-29T20:47:56.080Z,101926.34
2022-10-29T20:53:00.077Z,101919.25
2022-10-29T20:58:03.714Z,101901.75
2022-10-29T21:03:08.918Z,101895.84
2022-10-29T21:08:12.506Z,101886.25
2022-10-29T21:13:16.117Z,101875.66
2022-10-29T21:18:21.334Z,101872.47
2022-10-29T21:23:24.984Z,101872.28
2022-10-29T21:28:28.558Z,101867.75
2022-10-29T21:33:33.925Z,101869.34
2022-10-29T21:38:37.784Z,101853.16
2022-10-29T21:43:50.792Z,101857.78
2022-10-29T21:48:55.271Z,101866.34
2022-10-29T21:53:58.968Z,101866.34
2022-10-29T21:59:04.209Z,101861.19
2022-10-29T22:04:07.011Z,101859.31
2022-10-29T22:09:10.661Z,101851.69
2022-10-29T22:14:15.830Z,101865.75
2022-10-29T22:19:19.369Z,101867.28
2022-10-29T22:24:22.936Z,101871.25
2022-10-29T22:29:28.130Z,101870.22
2022-10-29T22:34:31.658Z,101880.38
2022-10-29T22:39:37.780Z,101866.59
2022-10-29T22:44:42.957Z,101871.19
2022-10-29T22:49:46.500Z,101866.59
2022-10-29T22:54:50.032Z,101863.44
2022-10-29T22:59:55.267Z,101876.16
2022-10-29T23:04:58.980Z,101872.75
2022-10-29T23:10:02.557Z,101871.75
2022-10-29T23:15:08.404Z,101857.13
2022-10-29T23:20:12.198Z,101862.84
2022-10-29T23:25:16.330Z,101858.25
2022-10-29T23:30:21.540Z,101854.91
2022-10-29T23:35:25.116Z,101844.13
2022-10-29T23:40:28.642Z,101836.75
2022-10-29T23:45:33.817Z,101841.50
2022-10-29T23:50:37.535Z,101842.59
2022-10-29T23:55:42.467Z,101836.63
